Rochester, NY (14625)

9:43 AM EST on March 06, 2015 (GMT -0500)
Park Avenue | Change Station
CLOSE
Current Station
Personal Weather Station
Location: Rochester, NY
Elevation: 463 ft
Nearby Weather Stations

Elev 463 ft 43.15 °N, 77.56 °W | Updated 5 seconds ago

Clear
Clear
12.2 °F
Feels Like 12 °F
N
2.0
Wind Variable Wind from West
Gusts 5.6 mph

Today
High -- | Low -- °F
--% Chance of Precip.
Yesterday
High -- | Low -- °F
Precip. -- in
6:38 AM 6:05 PM
Full, 99% visible
Pressure 30.58 in
Visibility 10.0 miles
Clouds Few 5000 ft
Windchill 12 °F
Dew Point -1 °F
Humidity 55%
Rainfall in
Snow Depth Not available.
UV 0.0 out of 12
Pollen .40 out of 12
Air Quality Not available.
Flu Activity Not available.
METAR KROC 061354Z 22010KT 10SM FEW050 M14/M20 A3052 RMK AO2 SLP353 T11441200

More Conditions Fewer Conditions

Pressure 30.58 in
Visibility 10.0 miles
Clouds Few 5000 ft
Windchill 12 °F
Dew Point -1 °F
Humidity 55%
Rainfall in
Snow Depth Not available.
UV 0.0 out of 12
Pollen .40 out of 12
Air Quality Not available.
Flu Activity Not available.
METAR KROC 061354Z 22010KT 10SM FEW050 M14/M20 A3052 RMK AO2 SLP353 T11441200

More Conditions Fewer Conditions

10-Day Weather Forecast

Almanac

Astronomy

Mar. 06, 2015 Rise Set
Actual Time
Civil Twilight
Nautical Twilight
Astronomical Twilight
Moon
Length of Visible Light
Length of Day
Tomorrow will be .
, % of the Moon is Illuminated

Today's Extremes

State Highs State Lows

Community

WunderPhotos

Upload Photos

1,803,285 photos uploaded!

WunderBlogs® & News

Nearby

Air Quality

  Air Quality AQ Index Pollutant
Not available.

Snow Depth

Station Depth Elevation

Earthquake Activity

City Distance Mag. Time & Date
Minimum magnitude displayed is 2.5.

Coastal Water Temperatures

Place Temperature

Nearby Weather Stations